Time;durP1;ratioP1;P1;durP2;ratioP2;P2;SDS_P1;SDS_P2;PMS_P1;PMS_P2;Temp;Humidity;BMP_temperature;BMP_pressure;BME280_temperature;BME280_humidity;BME280_pressure;Samples;Min_cycle;Max_cycle;Signal;HPM_P1;HPM_P2
2023/05/28 00:00:27;;;;;;;17.17;4.95;;;9.80;86.60;;;;;;5035086;28;20041;-68
2023/05/28 00:02:53;;;;;;;12.45;4.93;;;9.80;86.80;;;;;;5033544;28;20116;-68
2023/05/28 00:05:19;;;;;;;9.93;5.05;;;9.70;86.80;;;;;;5023605;28;20040;-69
2023/05/28 00:07:45;;;;;;;16.17;5.30;;;9.70;87.20;;;;;;5044668;28;20047;-69
2023/05/28 00:10:10;;;;;;;13.50;5.22;;;9.60;86.90;;;;;;5039517;28;20400;-68
2023/05/28 00:12:36;;;;;;;13.15;5.40;;;9.60;87.00;;;;;;5037362;28;20045;-69
2023/05/28 00:15:02;;;;;;;17.45;5.75;;;9.50;87.00;;;;;;5037510;28;20127;-67
2023/05/28 00:17:28;;;;;;;14.00;4.47;;;9.50;87.20;;;;;;5037307;28;20120;-69
2023/05/28 00:19:53;;;;;;;13.20;5.40;;;9.50;87.30;;;;;;5037517;28;20042;-69
2023/05/28 00:22:19;;;;;;;18.55;5.25;;;9.50;88.00;;;;;;5037720;28;20040;-67
2023/05/28 00:24:45;;;;;;;16.10;4.57;;;9.40;88.40;;;;;;5043616;28;20060;-69
2023/05/28 00:27:10;;;;;;;17.10;5.18;;;9.40;87.90;;;;;;5048997;28;20051;-69
2023/05/28 00:29:36;;;;;;;18.42;5.32;;;9.40;88.20;;;;;;5043266;28;20421;-69
2023/05/28 00:32:01;;;;;;;15.63;4.85;;;9.30;88.00;;;;;;5028744;28;20825;-67
2023/05/28 00:34:27;;;;;;;15.13;5.13;;;9.30;88.00;;;;;;5050529;28;20072;-69
2023/05/28 00:36:53;;;;;;;16.05;5.07;;;9.30;88.10;;;;;;5039783;28;20041;-69
2023/05/28 00:39:19;;;;;;;13.70;5.47;;;9.20;88.30;;;;;;5029183;28;20143;-69
2023/05/28 00:41:45;;;;;;;13.60;5.28;;;9.30;88.70;;;;;;5034136;28;20046;-68
2023/05/28 00:44:12;;;;;;;13.05;4.88;;;9.30;88.60;;;;;;5035387;28;20060;-69
2023/05/28 00:46:40;;;;;;;14.77;5.03;;;9.20;88.70;;;;;;5031810;28;20053;-69
2023/05/28 00:49:06;;;;;;;12.60;4.78;;;9.20;88.80;;;;;;5036237;28;20063;-69
2023/05/28 00:51:35;;;;;;;15.90;4.97;;;9.20;88.70;;;;;;5038887;28;20040;-69
2023/05/28 00:54:01;;;;;;;10.88;4.68;;;9.20;89.10;;;;;;5036677;28;20051;-69
2023/05/28 00:56:26;;;;;;;13.48;4.90;;;9.30;89.20;;;;;;5028766;28;20032;-69
2023/05/28 00:58:53;;;;;;;12.30;4.35;;;9.20;89.10;;;;;;5042417;28;20055;-69
2023/05/28 01:01:19;;;;;;;9.93;4.05;;;9.20;89.10;;;;;;5017809;28;20068;-69
2023/05/28 01:03:44;;;;;;;12.23;4.15;;;9.20;89.30;;;;;;5027814;28;20409;-68
2023/05/28 01:06:12;;;;;;;11.20;3.88;;;9.20;89.40;;;;;;5031875;28;20361;-69
2023/05/28 01:08:39;;;;;;;17.60;4.72;;;9.20;89.60;;;;;;5033873;28;20090;-68
2023/05/28 01:11:08;;;;;;;13.57;5.05;;;9.20;89.70;;;;;;5048564;28;20095;-68
2023/05/28 01:13:35;;;;;;;16.17;5.47;;;9.20;89.90;;;;;;5036188;28;20498;-69
2023/05/28 01:16:01;;;;;;;13.52;5.03;;;9.10;90.00;;;;;;5028152;28;20037;-69
2023/05/28 01:18:27;;;;;;;16.17;5.20;;;9.20;90.20;;;;;;5040195;28;20064;-69
2023/05/28 01:20:53;;;;;;;18.92;5.95;;;9.20;90.20;;;;;;5040082;28;20048;-69
2023/05/28 01:23:21;;;;;;;13.77;5.15;;;9.20;90.40;;;;;;5033873;28;20167;-69
2023/05/28 01:25:53;;;;;;;19.55;5.32;;;9.30;90.40;;;;;;5043644;28;20079;-69
2023/05/28 01:28:20;;;;;;;20.08;6.03;;;9.40;90.90;;;;;;5028913;28;20091;-69
2023/05/28 01:30:45;;;;;;;19.60;6.68;;;9.50;90.60;;;;;;5035530;28;20046;-70
2023/05/28 01:33:11;;;;;;;16.65;6.15;;;9.50;90.50;;;;;;5034225;28;20040;-69
2023/05/28 01:35:38;;;;;;;15.05;6.05;;;9.50;90.50;;;;;;5040713;28;20150;-68
2023/05/28 01:38:06;;;;;;;19.88;6.40;;;9.50;90.60;;;;;;5027140;28;20164;-69
2023/05/28 01:40:34;;;;;;;17.40;5.90;;;9.50;90.70;;;;;;5042429;28;20103;-70
2023/05/28 01:43:00;;;;;;;13.43;6.13;;;9.50;90.90;;;;;;5044016;28;20116;-70
2023/05/28 01:45:27;;;;;;;15.23;5.35;;;9.50;90.80;;;;;;5039595;28;20117;-68
2023/05/28 01:47:54;;;;;;;14.52;6.60;;;9.50;90.90;;;;;;5039921;28;20477;-69
2023/05/28 01:50:20;;;;;;;15.35;5.60;;;9.50;90.90;;;;;;5034647;28;20037;-70
2023/05/28 01:52:45;;;;;;;17.23;6.50;;;9.50;91.00;;;;;;5041002;28;20055;-70
2023/05/28 01:55:13;;;;;;;15.10;5.85;;;9.50;91.10;;;;;;5030172;28;20041;-70
2023/05/28 01:57:39;;;;;;;16.67;5.82;;;9.50;91.10;;;;;;5036537;28;20207;-69
2023/05/28 02:00:06;;;;;;;13.60;5.40;;;9.50;91.20;;;;;;5033681;28;20786;-69
2023/05/28 02:02:32;;;;;;;16.55;6.05;;;9.50;91.20;;;;;;5041621;28;20092;-70
2023/05/28 02:04:58;;;;;;;13.82;5.57;;;9.50;91.40;;;;;;5034611;28;20033;-69
2023/05/28 02:07:23;;;;;;;17.42;5.40;;;9.50;91.30;;;;;;5019234;28;20094;-70
2023/05/28 02:09:49;;;;;;;13.68;5.43;;;9.60;91.40;;;;;;5043350;28;20452;-70
2023/05/28 02:12:15;;;;;;;17.65;5.80;;;9.60;91.30;;;;;;5043115;28;20041;-70
2023/05/28 02:14:41;;;;;;;15.02;5.57;;;9.60;91.40;;;;;;5043086;28;20052;-70
2023/05/28 02:17:08;;;;;;;15.68;5.75;;;9.60;91.60;;;;;;5040567;28;20036;-69
2023/05/28 02:19:34;;;;;;;17.13;6.00;;;9.60;91.50;;;;;;5036785;28;20112;-70
2023/05/28 02:21:59;;;;;;;17.23;5.93;;;9.60;91.60;;;;;;5044684;28;20215;-69
2023/05/28 02:24:25;;;;;;;16.13;6.63;;;9.60;91.70;;;;;;5037177;28;20034;-70
2023/05/28 02:26:51;;;;;;;21.08;6.57;;;9.70;91.70;;;;;;5037842;28;20036;-70
2023/05/28 02:29:16;;;;;;;18.65;6.03;;;9.70;91.70;;;;;;5043428;28;20136;-69
2023/05/28 02:31:42;;;;;;;17.30;5.95;;;9.60;91.80;;;;;;5048828;28;20147;-70
2023/05/28 02:34:07;;;;;;;14.35;5.68;;;9.70;91.90;;;;;;5041930;28;20430;-70
2023/05/28 02:36:35;;;;;;;13.27;5.10;;;9.80;92.00;;;;;;5042297;28;20043;-69
2023/05/28 02:39:01;;;;;;;23.30;6.15;;;9.90;92.00;;;;;;5040935;28;20039;-68
2023/05/28 02:41:27;;;;;;;15.82;6.60;;;9.90;92.00;;;;;;5043290;28;20434;-69
2023/05/28 02:43:53;;;;;;;14.90;6.22;;;9.80;91.90;;;;;;5031792;28;20034;-69
2023/05/28 02:46:19;;;;;;;17.55;6.20;;;9.80;91.90;;;;;;5050011;28;20068;-70
2023/05/28 02:48:45;;;;;;;17.63;6.05;;;9.80;92.00;;;;;;5042348;28;20131;-69
2023/05/28 02:51:11;;;;;;;18.98;6.45;;;9.80;92.00;;;;;;5041670;28;20045;-70
2023/05/28 02:53:36;;;;;;;20.63;7.05;;;9.90;92.10;;;;;;5031327;28;20049;-67
2023/05/28 02:56:02;;;;;;;14.90;5.78;;;9.80;92.10;;;;;;5037395;28;20338;-69
2023/05/28 02:58:30;;;;;;;13.50;5.90;;;9.80;92.30;;;;;;5022241;28;20072;-69
2023/05/28 03:00:56;;;;;;;21.65;7.35;;;9.80;92.20;;;;;;5040114;28;20486;-70
2023/05/28 03:03:21;;;;;;;14.10;6.03;;;9.80;92.40;;;;;;5050159;28;20064;-69
2023/05/28 03:05:48;;;;;;;15.55;5.72;;;9.80;92.60;;;;;;5041279;28;20037;-70
2023/05/28 03:08:14;;;;;;;16.77;6.20;;;9.70;92.50;;;;;;5027863;28;20076;-69
2023/05/28 03:10:39;;;;;;;11.98;6.43;;;9.70;92.40;;;;;;5034712;28;20045;-69
2023/05/28 03:13:05;;;;;;;17.02;6.13;;;9.70;92.40;;;;;;5041661;28;20080;-70
2023/05/28 03:15:31;;;;;;;18.40;5.85;;;9.70;92.40;;;;;;5045705;28;20037;-69
2023/05/28 03:17:57;;;;;;;18.08;5.90;;;9.70;92.40;;;;;;5045257;28;20073;-70
2023/05/28 03:20:23;;;;;;;16.08;5.78;;;9.60;92.40;;;;;;5040679;28;20479;-68
2023/05/28 03:22:54;;;;;;;16.60;6.00;;;9.60;92.60;;;;;;5050210;28;20120;-69
2023/05/28 03:25:20;;;;;;;15.20;5.70;;;9.70;92.60;;;;;;5043874;28;20068;-70
2023/05/28 03:27:45;;;;;;;16.08;5.93;;;9.70;92.60;;;;;;5044255;28;20033;-69
2023/05/28 03:30:11;;;;;;;15.93;6.22;;;9.70;92.60;;;;;;5039229;28;20583;-69
2023/05/28 03:32:37;;;;;;;16.95;5.63;;;9.70;92.60;;;;;;5052371;28;20038;-70
2023/05/28 03:35:03;;;;;;;15.75;6.28;;;9.70;92.60;;;;;;5046784;28;20514;-70
2023/05/28 03:37:28;;;;;;;16.55;6.80;;;9.70;92.90;;;;;;5034597;28;20033;-68
2023/05/28 03:39:54;;;;;;;21.15;6.13;;;9.80;92.90;;;;;;5060091;28;20454;-70
2023/05/28 03:42:20;;;;;;;15.80;5.97;;;9.90;92.80;;;;;;5039397;28;20064;-70
2023/05/28 03:44:46;;;;;;;13.63;5.82;;;10.00;92.80;;;;;;5046771;28;20127;-69
2023/05/28 03:47:12;;;;;;;17.73;5.72;;;9.90;92.60;;;;;;5044330;28;20053;-70
2023/05/28 03:49:38;;;;;;;11.63;5.70;;;9.90;92.70;;;;;;5047787;28;21017;-69
2023/05/28 03:52:03;;;;;;;14.35;6.30;;;9.80;92.70;;;;;;5033650;28;20066;-69
2023/05/28 03:54:29;;;;;;;11.80;6.10;;;9.80;92.80;;;;;;5043681;28;20045;-69
2023/05/28 03:56:54;;;;;;;13.43;5.38;;;9.80;93.30;;;;;;5040051;28;20041;-68
2023/05/28 03:59:20;;;;;;;17.50;5.90;;;9.70;92.90;;;;;;5037650;28;20064;-69
2023/05/28 04:01:45;;;;;;;19.80;5.47;;;9.70;93.40;;;;;;5038583;28;20053;-69
2023/05/28 04:04:11;;;;;;;15.48;5.70;;;9.80;93.30;;;;;;5044583;28;20033;-70
2023/05/28 04:06:37;;;;;;;17.25;5.68;;;9.80;93.30;;;;;;5036047;28;20476;-70
2023/05/28 04:09:02;;;;;;;19.60;6.47;;;9.80;93.70;;;;;;5050332;28;20101;-69
2023/05/28 04:11:29;;;;;;;16.48;5.50;;;9.80;93.30;;;;;;5038333;28;20434;-69
2023/05/28 04:13:55;;;;;;;16.15;5.43;;;9.80;93.30;;;;;;5044790;28;21962;-70
2023/05/28 04:16:22;;;;;;;14.55;5.80;;;9.90;93.30;;;;;;5040533;28;20040;-67
2023/05/28 04:18:49;;;;;;;13.13;5.85;;;9.90;93.30;;;;;;5032229;28;20049;-70
2023/05/28 04:21:15;;;;;;;20.27;7.18;;;9.90;93.30;;;;;;5037434;28;20117;-69
2023/05/28 04:23:40;;;;;;;16.80;6.70;;;9.80;93.40;;;;;;5046366;28;20037;-69
2023/05/28 04:26:06;;;;;;;13.93;6.35;;;9.80;93.60;;;;;;5034872;28;20037;-69
2023/05/28 04:28:33;;;;;;;17.63;6.18;;;9.80;93.40;;;;;;5039980;28;20116;-69
2023/05/28 04:31:01;;;;;;;17.05;5.50;;;9.70;93.40;;;;;;5035447;28;20037;-70
2023/05/28 04:33:30;;;;;;;16.55;6.45;;;9.70;93.40;;;;;;5023889;28;20480;-69
2023/05/28 04:35:57;;;;;;;15.50;6.22;;;9.80;93.50;;;;;;5037861;28;20100;-69
2023/05/28 04:38:23;;;;;;;19.60;6.35;;;9.80;93.60;;;;;;5034225;28;20056;-69
2023/05/28 04:40:49;;;;;;;15.98;6.55;;;9.90;93.60;;;;;;5046166;28;20082;-72
2023/05/28 04:43:15;;;;;;;20.23;6.43;;;9.90;93.80;;;;;;5045108;28;20041;-70
2023/05/28 04:45:41;;;;;;;19.13;6.45;;;9.90;93.90;;;;;;5015900;28;20103;-69
2023/05/28 04:48:07;;;;;;;22.42;6.55;;;10.00;93.80;;;;;;5040930;28;20531;-69
2023/05/28 04:50:33;;;;;;;16.73;6.07;;;10.00;93.90;;;;;;5043997;28;20144;-68
2023/05/28 04:52:58;;;;;;;18.48;5.97;;;10.10;93.80;;;;;;5039430;28;20064;-69
2023/05/28 04:55:24;;;;;;;23.83;7.85;;;10.20;93.90;;;;;;5040374;28;20089;-70
2023/05/28 04:57:50;;;;;;;14.60;6.25;;;10.20;93.80;;;;;;5037822;28;20060;-70
2023/05/28 05:00:15;;;;;;;23.60;6.75;;;10.20;93.80;;;;;;5035238;28;20124;-72
2023/05/28 05:02:41;;;;;;;18.17;6.68;;;10.30;93.90;;;;;;5031374;28;20052;-69
2023/05/28 05:05:07;;;;;;;18.17;6.78;;;10.40;93.90;;;;;;5040294;28;20036;-71
2023/05/28 05:07:36;;;;;;;20.35;6.65;;;10.50;93.90;;;;;;5042819;28;20041;-72
2023/05/28 05:10:02;;;;;;;15.45;5.80;;;10.70;93.90;;;;;;5037645;28;20045;-71
2023/05/28 05:12:28;;;;;;;19.95;5.97;;;10.80;93.90;;;;;;5036590;28;20777;-71
2023/05/28 05:14:53;;;;;;;17.38;6.38;;;10.90;93.90;;;;;;5043881;28;20052;-72
2023/05/28 05:17:19;;;;;;;19.45;6.63;;;11.10;93.90;;;;;;5034284;28;20053;-71
2023/05/28 05:19:44;;;;;;;12.30;6.35;;;11.10;94.00;;;;;;5032238;28;20052;-70
2023/05/28 05:22:10;;;;;;;20.35;8.10;;;11.20;94.00;;;;;;5041320;28;20076;-71
2023/05/28 05:24:36;;;;;;;18.13;6.35;;;11.20;94.00;;;;;;5029534;28;20346;-72
2023/05/28 05:27:01;;;;;;;17.23;5.63;;;11.30;93.90;;;;;;5043384;28;20041;-71
2023/05/28 05:29:27;;;;;;;15.60;5.63;;;11.40;93.90;;;;;;5036829;28;20112;-70
2023/05/28 05:31:52;;;;;;;16.92;6.35;;;11.40;93.80;;;;;;5038343;28;20048;-70
2023/05/28 05:34:18;;;;;;;20.58;6.68;;;11.60;93.80;;;;;;5036912;28;20110;-69
2023/05/28 05:36:44;;;;;;;13.50;5.60;;;11.80;93.90;;;;;;5035836;28;20102;-71
2023/05/28 05:39:10;;;;;;;13.25;6.68;;;12.10;93.90;;;;;;5039777;28;20110;-72
2023/05/28 05:41:35;;;;;;;17.52;5.80;;;12.30;94.20;;;;;;5033055;28;20425;-71
2023/05/28 05:44:01;;;;;;;12.10;5.35;;;12.50;93.80;;;;;;5036900;28;20128;-71
2023/05/28 05:46:26;;;;;;;16.55;6.05;;;12.60;93.60;;;;;;5034100;28;20053;-70
2023/05/28 05:48:52;;;;;;;16.90;5.43;;;12.70;93.40;;;;;;5042121;28;20098;-71
2023/05/28 05:51:18;;;;;;;19.88;6.13;;;13.00;93.20;;;;;;5041024;28;20536;-71
2023/05/28 05:53:44;;;;;;;12.75;5.00;;;13.20;92.90;;;;;;5030206;28;20525;-70
2023/05/28 05:56:10;;;;;;;15.38;5.55;;;13.30;92.40;;;;;;5047407;28;20124;-70
2023/05/28 05:58:37;;;;;;;13.63;4.53;;;13.50;91.80;;;;;;5046156;28;20494;-71
2023/05/28 06:01:03;;;;;;;14.60;5.05;;;13.60;91.20;;;;;;5047463;28;20037;-70
2023/05/28 06:03:28;;;;;;;16.70;5.03;;;13.70;90.80;;;;;;5048069;28;20037;-71
2023/05/28 06:05:55;;;;;;;14.60;5.70;;;13.90;90.40;;;;;;5041665;28;20567;-71
2023/05/28 06:08:21;;;;;;;13.27;5.38;;;14.00;90.10;;;;;;5044886;28;20079;-71
2023/05/28 06:10:51;;;;;;;16.80;5.65;;;14.00;89.90;;;;;;5029730;28;20049;-70
2023/05/28 06:13:17;;;;;;;13.40;5.53;;;14.00;89.50;;;;;;5011789;28;20045;-70
2023/05/28 06:15:43;;;;;;;15.15;5.18;;;14.00;88.90;;;;;;5039807;28;20406;-71
2023/05/28 06:18:09;;;;;;;12.43;5.28;;;14.10;88.80;;;;;;5044342;28;20064;-71
2023/05/28 06:20:35;;;;;;;10.18;4.80;;;14.30;88.60;;;;;;5047763;28;20041;-70
2023/05/28 06:23:01;;;;;;;13.43;5.00;;;14.50;88.70;;;;;;5039314;28;20058;-72
2023/05/28 06:25:27;;;;;;;13.52;5.22;;;14.80;88.40;;;;;;5041331;28;20152;-72
2023/05/28 06:27:53;;;;;;;12.40;4.88;;;14.90;88.40;;;;;;5043025;28;20037;-71
2023/05/28 06:30:19;;;;;;;10.85;4.90;;;15.20;88.10;;;;;;5042784;28;20178;-72
2023/05/28 06:32:45;;;;;;;13.52;4.85;;;15.50;87.70;;;;;;5043418;28;20128;-71
2023/05/28 06:35:10;;;;;;;13.20;5.00;;;15.50;87.40;;;;;;5044256;28;20041;-72
2023/05/28 06:37:36;;;;;;;13.82;4.68;;;15.60;87.20;;;;;;5041378;28;20069;-72
2023/05/28 06:40:05;;;;;;;12.88;4.80;;;15.80;86.60;;;;;;5042744;28;20067;-71
2023/05/28 06:42:31;;;;;;;13.63;4.80;;;16.00;85.80;;;;;;5028205;28;20037;-72
2023/05/28 06:44:59;;;;;;;10.88;4.43;;;16.30;84.90;;;;;;5043330;28;20045;-72
2023/05/28 06:47:24;;;;;;;10.60;4.68;;;16.60;83.40;;;;;;5028553;28;20057;-71
2023/05/28 06:49:50;;;;;;;11.40;4.38;;;16.70;81.70;;;;;;5048039;28;20045;-71
2023/05/28 06:52:16;;;;;;;12.48;4.10;;;16.90;80.20;;;;;;5050288;28;20069;-70
2023/05/28 06:54:41;;;;;;;9.55;4.20;;;17.10;79.70;;;;;;5047990;28;20424;-69
2023/05/28 06:57:07;;;;;;;9.07;4.10;;;17.30;78.30;;;;;;5049164;28;20052;-69
2023/05/28 06:59:32;;;;;;;9.60;4.20;;;17.40;76.70;;;;;;5041683;28;20789;-70
2023/05/28 07:01:58;;;;;;;12.18;4.22;;;17.60;74.90;;;;;;5048035;28;20179;-69
2023/05/28 07:04:23;;;;;;;9.23;3.72;;;17.90;72.80;;;;;;5048244;28;20075;-70
2023/05/28 07:06:49;;;;;;;12.10;4.35;;;18.10;71.00;;;;;;5048059;28;20041;-69
2023/05/28 07:09:15;;;;;;;9.50;4.30;;;18.30;69.90;;;;;;5046515;28;20040;-68
2023/05/28 07:11:40;;;;;;;14.30;4.45;;;18.40;67.90;;;;;;5046064;28;20040;-70
2023/05/28 07:14:06;;;;;;;9.77;4.53;;;18.60;66.10;;;;;;5045274;28;20049;-69
2023/05/28 07:16:32;;;;;;;9.68;4.40;;;18.60;64.60;;;;;;5046123;28;20033;-68
2023/05/28 07:18:57;;;;;;;9.75;4.03;;;18.90;63.80;;;;;;5045169;28;20460;-68
2023/05/28 07:21:23;;;;;;;8.50;4.10;;;19.10;62.50;;;;;;5038667;28;20048;-70
2023/05/28 07:23:48;;;;;;;10.20;4.40;;;19.20;61.50;;;;;;5045727;28;20043;-68
2023/05/28 07:26:14;;;;;;;10.05;4.13;;;19.40;58.80;;;;;;5051407;28;20068;-69
2023/05/28 07:28:40;;;;;;;9.25;4.18;;;19.50;57.90;;;;;;5048387;28;20447;-70
2023/05/28 07:31:06;;;;;;;9.38;5.07;;;19.70;57.10;;;;;;5050129;28;20049;-69
2023/05/28 07:33:31;;;;;;;12.23;5.05;;;19.80;55.70;;;;;;5048468;28;20442;-68
2023/05/28 07:35:57;;;;;;;11.23;5.18;;;19.90;54.10;;;;;;5043963;28;20040;-70
2023/05/28 07:38:22;;;;;;;10.43;4.88;;;19.80;53.80;;;;;;5028252;28;20045;-69
2023/05/28 07:40:49;;;;;;;12.43;5.30;;;20.20;53.20;;;;;;5044010;28;20155;-68
2023/05/28 07:43:15;;;;;;;11.85;5.10;;;20.20;52.20;;;;;;5027874;28;20033;-70
2023/05/28 07:45:40;;;;;;;10.65;5.00;;;20.50;51.10;;;;;;5048520;28;20043;-69
2023/05/28 07:48:06;;;;;;;9.00;4.50;;;20.70;50.10;;;;;;5049673;28;20102;-70
2023/05/28 07:50:31;;;;;;;8.48;5.35;;;20.90;47.90;;;;;;5043366;28;20043;-69
2023/05/28 07:52:57;;;;;;;10.25;5.30;;;21.10;46.80;;;;;;5041990;28;20116;-70
2023/05/28 07:55:23;;;;;;;7.78;4.80;;;21.20;46.10;;;;;;5041147;28;20489;-68
2023/05/28 07:57:49;;;;;;;11.25;5.50;;;21.30;45.50;;;;;;5048162;28;20090;-70
2023/05/28 08:00:15;;;;;;;9.18;5.07;;;21.30;44.90;;;;;;5035381;28;20045;-71
2023/05/28 08:02:43;;;;;;;8.13;4.82;;;21.70;44.60;;;;;;5050016;28;20037;-70
2023/05/28 08:05:08;;;;;;;7.97;4.40;;;21.60;43.70;;;;;;5043153;28;20037;-69
2023/05/28 08:07:34;;;;;;;9.10;4.32;;;21.80;43.60;;;;;;5040189;28;20048;-70
2023/05/28 08:10:00;;;;;;;9.18;4.50;;;21.90;43.10;;;;;;5046238;28;20115;-74
2023/05/28 08:12:26;;;;;;;10.60;5.50;;;22.10;43.00;;;;;;5040707;28;20156;-70
2023/05/28 08:14:52;;;;;;;7.93;4.10;;;22.40;42.10;;;;;;5033091;28;20037;-70
2023/05/28 08:17:21;;;;;;;9.32;4.97;;;22.60;42.30;;;;;;5045145;28;20085;-70
2023/05/28 08:19:47;;;;;;;7.53;4.10;;;22.80;41.90;;;;;;5048109;28;20181;-70
2023/05/28 08:22:12;;;;;;;7.25;4.45;;;23.10;42.10;;;;;;5045135;28;20466;-70
2023/05/28 08:24:38;;;;;;;8.10;4.05;;;23.30;41.70;;;;;;5030365;28;20487;-69
2023/05/28 08:27:04;;;;;;;8.02;4.60;;;23.40;41.30;;;;;;5039612;28;20033;-69
2023/05/28 08:29:29;;;;;;;7.60;4.40;;;23.70;40.50;;;;;;5029258;28;20047;-70
2023/05/28 08:31:57;;;;;;;9.63;4.63;;;23.80;39.20;;;;;;5030872;28;20424;-70
2023/05/28 08:34:23;;;;;;;8.32;4.72;;;24.00;38.30;;;;;;5049202;28;20079;-69
2023/05/28 08:36:48;;;;;;;7.03;4.75;;;24.00;38.40;;;;;;5045849;28;20068;-70
2023/05/28 08:39:14;;;;;;;8.63;4.80;;;24.50;38.30;;;;;;5046848;28;20530;-68
2023/05/28 08:41:40;;;;;;;16.90;4.40;;;24.90;37.20;;;;;;5059265;28;20036;-66
2023/05/28 08:44:05;;;;;;;10.02;4.63;;;25.00;35.90;;;;;;5040648;28;20075;-67
2023/05/28 08:46:32;;;;;;;8.27;4.88;;;25.00;34.80;;;;;;5036049;28;20053;-68
2023/05/28 08:48:58;;;;;;;10.07;5.38;;;25.20;34.60;;;;;;5035162;28;20116;-67
2023/05/28 08:51:26;;;;;;;6.82;4.22;;;25.40;33.90;;;;;;5031470;28;20479;-66
2023/05/28 08:53:53;;;;;;;9.95;4.72;;;25.60;33.80;;;;;;5036696;28;20048;-68
2023/05/28 08:56:20;;;;;;;8.50;4.65;;;25.90;33.80;;;;;;5030299;28;20132;-67
2023/05/28 08:58:46;;;;;;;7.43;4.25;;;26.30;33.10;;;;;;5033367;28;20095;-68
2023/05/28 09:01:12;;;;;;;9.57;4.28;;;26.70;32.40;;;;;;5041360;28;20040;-70
2023/05/28 09:03:39;;;;;;;8.23;4.00;;;26.90;32.70;;;;;;5031101;28;20033;-68
2023/05/28 09:06:06;;;;;;;8.10;4.38;;;27.10;31.60;;;;;;5035391;28;20503;-69
2023/05/28 09:08:32;;;;;;;10.73;4.88;;;27.10;30.00;;;;;;5045364;28;20045;-68
2023/05/28 09:11:08;;;;;;;7.10;4.35;;;27.50;30.20;;;;;;5035775;28;20045;-69
2023/05/28 09:13:33;;;;;;;6.78;4.55;;;27.80;30.20;;;;;;5045085;28;20045;-68
2023/05/28 09:15:59;;;;;;;8.27;4.80;;;28.00;30.10;;;;;;5030283;28;20044;-67
2023/05/28 09:18:25;;;;;;;6.47;4.28;;;28.00;29.40;;;;;;5047860;28;20139;-69
2023/05/28 09:20:51;;;;;;;8.50;4.75;;;28.40;29.20;;;;;;5045753;28;20158;-68
2023/05/28 09:23:20;;;;;;;7.00;4.68;;;28.50;28.40;;;;;;5045353;28;20102;-68
2023/05/28 09:25:46;;;;;;;7.32;4.63;;;29.10;26.90;;;;;;5038982;28;20401;-68
2023/05/28 09:28:16;;;;;;;7.75;4.18;;;28.70;27.70;;;;;;5040492;28;20033;-67
2023/05/28 09:30:41;;;;;;;7.88;4.32;;;28.90;27.00;;;;;;5048968;28;20068;-68
2023/05/28 09:33:08;;;;;;;6.22;3.83;;;29.20;27.20;;;;;;5050945;28;20072;-68
2023/05/28 09:35:35;;;;;;;8.75;4.20;;;29.70;27.20;;;;;;5042697;28;20033;-67
2023/05/28 09:38:08;;;;;;;6.72;3.90;;;29.80;27.00;;;;;;5045464;28;20085;-68
2023/05/28 09:40:38;;;;;;;7.47;4.10;;;29.90;25.90;;;;;;5048387;28;20472;-67
2023/05/28 09:43:04;;;;;;;;;;;30.10;25.10;;;;;;5031944;28;20041;-68
2023/05/28 09:45:29;;;;;;;6.50;3.85;;;29.90;24.70;;;;;;5029901;28;19916;-67
2023/05/28 09:47:55;;;;;;;7.35;4.50;;;29.60;26.30;;;;;;5046997;28;20057;-68
2023/05/28 09:50:20;;;;;;;8.85;4.03;;;29.20;26.30;;;;;;5049106;28;20048;-67
2023/05/28 09:52:46;;;;;;;8.75;4.07;;;28.70;26.60;;;;;;5034176;28;20114;-67
2023/05/28 09:55:20;;;;;;;7.05;4.38;;;28.90;26.50;;;;;;5049573;28;20029;-66
2023/05/28 09:58:04;;;;;;;6.53;3.97;;;29.30;25.30;;;;;;5048122;28;20556;-68
2023/05/28 10:00:36;;;;;;;6.65;4.43;;;30.40;24.40;;;;;;5047716;28;20055;-69
2023/05/28 10:03:25;;;;;;;6.53;4.53;;;30.70;23.70;;;;;;5048351;28;20489;-68
2023/05/28 10:06:00;;;;;;;5.90;4.03;;;31.40;23.30;;;;;;5033222;28;20056;-68
2023/05/28 10:08:26;;;;;;;8.02;3.92;;;31.80;23.20;;;;;;5042182;28;20069;-68
2023/05/28 10:10:53;;;;;;;5.03;3.65;;;32.20;22.50;;;;;;5044937;28;20045;-68
2023/05/28 10:13:20;;;;;;;6.10;4.13;;;32.70;22.20;;;;;;5045311;28;20052;-68
2023/05/28 10:15:45;;;;;;;7.63;4.25;;;33.00;22.10;;;;;;5048850;28;20457;-69
2023/05/28 10:18:15;;;;;;;7.57;4.18;;;33.10;21.70;;;;;;5047926;28;20087;-68
2023/05/28 10:20:42;;;;;;;7.78;4.28;;;33.50;21.30;;;;;;5049084;28;20037;-69
2023/05/28 10:23:08;;;;;;;6.65;3.97;;;33.10;21.00;;;;;;5043832;28;20094;-69
2023/05/28 10:25:35;;;;;;;7.00;4.28;;;33.20;21.20;;;;;;5046719;28;20029;-69
2023/05/28 10:28:05;;;;;;;6.28;4.05;;;33.50;21.20;;;;;;5049068;28;20416;-69
2023/05/28 10:30:36;;;;;;;8.30;4.28;;;33.70;21.10;;;;;;5046743;28;20043;-68
2023/05/28 10:33:07;;;;;;;6.75;4.78;;;33.70;20.80;;;;;;5046743;28;20106;-67
2023/05/28 10:35:35;;;;;;;7.90;4.57;;;33.70;20.20;;;;;;5044881;28;20090;-68
2023/05/28 10:38:08;;;;;;;9.13;4.68;;;34.00;20.80;;;;;;5045423;28;20104;-69
2023/05/28 10:40:35;;;;;;;6.82;4.13;;;34.10;20.80;;;;;;5046536;28;20041;-69
2023/05/28 10:43:01;;;;;;;8.57;4.18;;;33.70;20.70;;;;;;5049216;28;20094;-68
2023/05/28 10:45:37;;;;;;;7.68;4.00;;;33.20;20.60;;;;;;5044745;28;20077;-68
2023/05/28 10:48:03;;;;;;;7.20;4.32;;;33.00;20.20;;;;;;5048331;28;20454;-68
2023/05/28 10:50:29;;;;;;;5.90;4.20;;;32.60;21.40;;;;;;5048025;28;20040;-68
2023/05/28 10:53:08;;;;;;;6.03;4.10;;;32.40;21.40;;;;;;5046135;28;20036;-69
2023/05/28 10:55:54;;;;;;;7.20;3.97;;;31.50;21.20;;;;;;5062030;28;20048;-67
2023/05/28 10:58:27;;;;;;;6.97;3.72;;;30.50;20.50;;;;;;5047503;28;20083;-68
2023/05/28 11:01:02;;;;;;;5.18;3.45;;;29.40;22.40;;;;;;5048591;28;20440;-68
2023/05/28 11:03:45;;;;;;;5.78;3.60;;;28.50;23.60;;;;;;5049949;28;20037;-68
2023/05/28 11:06:12;;;;;;;6.18;4.10;;;27.80;24.00;;;;;;5046015;28;20029;-67
2023/05/28 11:08:45;;;;;;;4.75;3.47;;;27.30;24.70;;;;;;5058586;28;20542;-67
2023/05/28 11:11:12;;;;;;;4.88;3.55;;;26.80;24.50;;;;;;5045592;28;20529;-67
2023/05/28 11:13:38;;;;;;;4.78;3.20;;;26.30;24.00;;;;;;5048099;28;20037;-66
2023/05/28 11:16:11;;;;;;;5.82;3.63;;;25.90;24.20;;;;;;5058295;28;20489;-67
2023/05/28 11:18:37;;;;;;;7.80;3.78;;;25.70;23.40;;;;;;5036969;28;20186;-67
2023/05/28 11:21:08;;;;;;;7.03;3.88;;;25.70;24.00;;;;;;5033899;28;20582;-68
2023/05/28 11:23:39;;;;;;;5.80;4.05;;;25.40;24.10;;;;;;5046998;28;20051;-68
2023/05/28 11:26:20;;;;;;;6.00;3.92;;;25.30;23.80;;;;;;5030539;28;20041;-67
2023/05/28 11:28:48;;;;;;;5.93;4.10;;;25.40;24.20;;;;;;5032124;28;20086;-67
2023/05/28 11:31:14;;;;;;;5.32;3.72;;;25.20;23.90;;;;;;5047625;28;20037;-67
2023/05/28 11:33:40;;;;;;;7.05;4.38;;;25.20;24.10;;;;;;5048738;28;20119;-67
2023/05/28 11:36:06;;;;;;;6.30;4.00;;;25.30;23.80;;;;;;5034361;28;20346;-67
2023/05/28 11:38:32;;;;;;;6.03;3.67;;;25.10;23.50;;;;;;5050899;28;20055;-67
2023/05/28 11:41:01;;;;;;;6.18;4.13;;;25.20;23.70;;;;;;5052626;28;20372;-67
2023/05/28 11:43:28;;;;;;;7.07;4.75;;;25.10;23.40;;;;;;5035620;28;20037;-67
2023/05/28 11:46:00;;;;;;;6.07;4.30;;;25.00;23.80;;;;;;5050953;28;20045;-67
2023/05/28 11:48:27;;;;;;;6.30;4.35;;;25.10;23.90;;;;;;5034820;28;20090;-67
2023/05/28 11:51:01;;;;;;;9.02;4.30;;;25.10;24.00;;;;;;5048211;28;20874;-68
2023/05/28 11:53:44;;;;;;;7.13;4.13;;;25.30;24.00;;;;;;5046228;28;20037;-67
2023/05/28 11:56:11;;;;;;;7.15;4.05;;;25.30;23.80;;;;;;5047656;28;20041;-69
2023/05/28 11:58:40;;;;;;;7.70;4.30;;;25.10;23.50;;;;;;5045119;28;20044;-69
2023/05/28 12:01:05;;;;;;;6.95;4.78;;;25.10;24.00;;;;;;5045746;28;20200;-69
2023/05/28 12:03:31;;;;;;;6.95;4.10;;;25.30;24.70;;;;;;5051484;28;20133;-68
2023/05/28 12:05:57;;;;;;;6.47;4.10;;;25.30;25.10;;;;;;5032485;28;20037;-68
2023/05/28 12:08:22;;;;;;;7.72;4.32;;;25.20;25.30;;;;;;5042526;28;20037;-68
2023/05/28 12:10:48;;;;;;;7.20;3.83;;;25.50;25.40;;;;;;5033820;28;20120;-69
2023/05/28 12:13:14;;;;;;;8.85;3.63;;;25.50;25.90;;;;;;5027343;28;20033;-68
2023/05/28 12:15:41;;;;;;;5.88;3.20;;;26.30;26.40;;;;;;5048630;28;20049;-68
2023/05/28 12:18:07;;;;;;;4.72;2.80;;;27.80;25.60;;;;;;5047694;28;20086;-69
2023/05/28 12:20:36;;;;;;;7.95;3.58;;;28.20;24.30;;;;;;5049920;28;20337;-69
2023/05/28 12:23:07;;;;;;;4.20;2.72;;;29.20;23.80;;;;;;5043075;28;20136;-67
2023/05/28 12:25:45;;;;;;;8.07;3.20;;;28.50;22.90;;;;;;5041152;28;20166;-68
2023/05/28 12:28:12;;;;;;;6.57;2.80;;;29.30;23.30;;;;;;5044510;28;20041;-67
2023/05/28 12:30:42;;;;;;;7.18;3.38;;;29.80;23.90;;;;;;5044773;28;20064;-66
2023/05/28 12:33:08;;;;;;;6.53;2.53;;;30.00;23.40;;;;;;5047729;28;20059;-68
2023/05/28 12:35:33;;;;;;;6.28;2.97;;;30.00;24.10;;;;;;5048400;28;20048;-68
2023/05/28 12:37:59;;;;;;;6.57;2.65;;;30.90;24.00;;;;;;5047320;28;20480;-68
2023/05/28 12:40:24;;;;;;;6.18;2.47;;;32.40;23.80;;;;;;5046061;28;20041;-68
2023/05/28 12:42:50;;;;;;;8.20;3.08;;;33.70;23.10;;;;;;5043735;28;20360;-67